プンタアレナス空港の過去48時間の天気

プンタアレナス空港 (Punta Arenas)

現在時刻: 9/28 06:48 -03 (9/28 09:48 UTC) 以下の時間は現地時間です。

過去48時間のMETAR気象情報
時間 風向 風速(m/s) 視程 気温(℃) 湿度(%) 気圧(hPa) 天気現象
28 06:00 西 7 10km以上 4 65 996
28 05:00 西南西 5 10km以上 4 81 993
28 04:00 西 12 10km以上 5 75 991
28 03:00 西 13 10km以上 5 75 991
28 02:00 西 13 10km以上 5 75 991
28 01:00 西 12 10km以上 5 75 991
28 00:00 西 15 10km以上 6 76 990
27 23:00 西北西 14 10km以上 7 70 990
27 22:00 西北西 14 10km以上 8 66 991
27 21:00 西北西 12 10km以上 8 66 991
27 20:00 西北西 12 10km以上 9 66 992
27 19:00 西北西 14 10km以上 10 62 993
27 18:00 西北西 15 10km以上 11 58 993
27 17:00 北西 17 10km以上 11 54 993
27 16:00 北西 11 10km以上 12 50 995
27 15:00 北西 10 10km以上 11 50 997
27 14:00 北北西 7 10km以上 10 46 998
27 13:00 北北東 5 10km以上 7 66 1000
27 12:00 北北東 7 10km以上 6 65 1002
27 11:00 7 10km以上 7 61 1004
27 10:00 5 10km以上 5 70 1005
27 09:00 北北東 5 10km以上 4 70 1007
27 08:00 4 10km以上 4 70 1008
27 07:00 北東 3 10km以上 3 81 1009
27 06:00 北北西 3 10km以上 3 87 1009
27 05:00 北西 3 10km以上 4 81 1009
27 04:00 北西 4 10km以上 4 81 1009
27 03:00 2 10km以上 2 87 1009
27 02:00 北北西 2 10km以上 2 93 1010
27 01:00 西 6 10km以上 3 87 1010 弱いしゅう雨
27 00:00 西 9 10km以上 3 87 1010
26 23:00 西南西 9 10km以上 3 87 1010 弱いしゅう雨
26 22:00 西 10 10km以上 4 75 1010 弱いしゅう雨
26 21:00 北西 3 10km以上 4 75 1010
26 20:00 西北西 3 10km以上 5 65 1009
26 19:00 西 9 10km以上 6 61 1008
26 18:00 西 15 10km以上 7 53 1006
26 17:00 西 14 10km以上 8 49 1006
26 16:00 西 14 10km以上 8 57 1006
26 15:00 西 13 10km以上 8 57 1005
26 14:00 西 15 10km以上 8 49 1005
26 13:00 西 17 10km以上 8 46 1004
26 12:00 西南西 15 10km以上 7 57 1004
26 11:00 西 11 10km以上 6 70 1004
26 10:00 西 10 10km以上 5 81 1004
26 09:00 西 8 10km以上 3 93 1003
26 08:00 西 10 10km以上 3 87 1002 弱い雨
26 07:00 西 9 10km以上 3 87 1001 弱い雨
SCCI 280900Z 26014KT 9999 FEW040 04/M02 Q0996 NOSIG
SCCI 280800Z 24009KT 9999 FEW040 04/01 Q0993 NOSIG
SCCI 280700Z 26024KT 9999 FEW040 05/01 Q0991 NOSIG
SCCI 280600Z 28025KT 9999 FEW040 05/01 Q0991 NOSIG
SCCI 280500Z METAR 26025KT 9999 FEW040 05/01 Q0991 NOSIG
SCCI 280400Z 26023KT 9999 FEW040 05/01 Q0991 NOSIG
SCCI 280300Z 28030KT 9999 FEW040 06/02 Q0990 NOSIG
SCCI 280200Z 29027KT 9999 SCT040 07/02 Q0990 NOSIG
SCCI 280100Z 30027KT 9999 SCT040 08/02 Q0991 NOSIG
SCCI 280000Z 30023G33KT 9999 SCT040 08/02 Q0991 NOSIG
SCCI 272300Z 30024G34KT 9999 SCT045 09/03 Q0992 NOSIG
SCCI 272200Z 30028G38KT 9999 SCT045 10/03 Q0993 NOSIG
SCCI 272100Z 30030G40KT 9999 SCT045 11/03 Q0993 NOSIG
SCCI 272000Z 31033G44KT 9999 SCT045 11/02 Q0993 NOSIG
SCCI 271900Z 31021KT 9999 FEW045 BKN060 12/02 Q0995 NOSIG
SCCI 271800Z 31020KT 9999 FEW045 BKN060 11/01 Q0997 NOSIG
SCCI 271700Z 34014KT 9999 FEW045 OVC060 10/M01 Q0998 NOSIG
SCCI 271600Z 03010KT 9999 FEW045 OVC070 07/01 Q1000 NOSIG
SCCI 271500Z 02013KT 9999 FEW045 OVC070 06/00 Q1002 NOSIG
SCCI 271400Z 36013KT 9999 FEW045 OVC070 07/M00 Q1004 NOSIG
SCCI 271300Z 36010KT 9999 FEW040 OVC070 05/M00 Q1005 NOSIG
SCCI 271200Z 02009KT 9999 FEW040 OVC070 04/M01 Q1007 NOSIG
SCCI 271100Z 35008KT 9999 BKN045 OVC100 04/M01 Q1008 NOSIG
SCCI 271000Z 04006KT 9999 SCT020 OVC100 03/00 Q1009 NOSIG
SCCI 270900Z 33005KT 290V040 9999 BKN035 03/01 Q1009 NOSIG
SCCI 270800Z 31006KT 9999 BKN035 04/01 Q1009 NOSIG
SCCI 270700Z 32007KT 9999 BKN032 04/01 Q1009 NOSIG
SCCI 270600Z 36003KT 280V040 9999 SCT032 BKN080 02/00 Q1009 NOSIG
SCCI 270500Z 33003KT 9999 SCT040 BKN080 02/01 Q1010 NOSIG
SCCI 270400Z 26011KT 9999 -SHRA SCT035 BKN100 03/01 Q1010 NOSIG
SCCI 270300Z 27017KT 9999 SCT035 BKN080 03/01 Q1010 RESHRA NOSIG
SCCI 270200Z 25017KT 9999 -SHRA SCT035 BKN080 03/01 Q1010 NOSIG
SCCI 270100Z 26020KT 9999 -SHRA SCT035 BKN080 04/M00 Q1010 NOSIG
SCCI 270000Z 31006KT 9999 FEW035 BKN080 04/M00 Q1010 NOSIG
SCCI 262300Z 29005KT 210V010 9999 FEW040 BKN080 05/M01 Q1009 NOSIG
SCCI 262200Z 28017KT 9999 FEW030 SCT200 06/M01 Q1008 NOSIG
SCCI 262100Z 28029KT 9999 FEW030 07/M02 Q1006 NOSIG
SCCI 262000Z 27028G38KT 9999 FEW030 08/M02 Q1006 NOSIG
SCCI 261900Z 27028KT 9999 FEW025 08/M00 Q1006 NOSIG
SCCI 261800Z 26026KT 9999 FEW040 08/M00 Q1005 NOSIG
SCCI 261700Z 27030KT 9999 FEW030 08/M02 Q1005 NOSIG
SCCI 261600Z 26034G44KT 9999 FEW030 08/M03 Q1004 NOSIG
SCCI 261500Z 25030KT 9999 FEW025 07/M01 Q1004 NOSIG
SCCI 261400Z 26021G31KT 9999 SCT025 06/01 Q1004 NOSIG
SCCI 261300Z 27019KT 9999 FEW014 BKN040 05/02 Q1004 NOSIG
SCCI 261200Z 27016KT 9999 SCT030 SCT080 03/02 Q1003 RESHRA NOSIG
SCCI 261100Z 26020KT 9999 -RA FEW028 SCT039 BKN070 03/01 Q1002 NOSIG
SCCI 261000Z 26018KT 9999 -RA FEW030 BKN034 03/01 Q1001 NOSIG